createdAt,value
2018-08-18T00:00:32.093Z,31.48
2018-08-18T00:03:01.851Z,30.20
2018-08-18T00:05:31.641Z,30.65
2018-08-18T00:08:01.352Z,30.40
2018-08-18T00:10:31.031Z,31.23
2018-08-18T00:13:00.649Z,33.83
2018-08-18T00:15:30.411Z,32.95
2018-08-18T00:18:00.352Z,32.50
2018-08-18T00:20:29.883Z,33.83
2018-08-18T00:23:00.283Z,29.13
2018-08-18T00:25:30.210Z,31.17
2018-08-18T00:28:09.180Z,30.87
2018-08-18T00:30:40.083Z,32.67
2018-08-18T00:33:09.950Z,33.20
2018-08-18T00:35:39.452Z,41.07
2018-08-18T00:38:08.826Z,38.37
2018-08-18T00:40:38.448Z,30.83
2018-08-18T00:43:08.490Z,32.60
2018-08-18T00:45:38.316Z,36.07
2018-08-18T00:48:08.074Z,32.67
2018-08-18T00:50:43.299Z,34.13
2018-08-18T00:53:15.074Z,32.93
2018-08-18T00:55:45.122Z,28.33
2018-08-18T00:59:18.766Z,27.57
2018-08-18T01:01:48.516Z,32.63
2018-08-18T01:04:17.991Z,32.20
2018-08-18T01:06:47.504Z,37.73
2018-08-18T01:09:17.250Z,32.30
2018-08-18T01:11:52.222Z,34.63
2018-08-18T01:17:26.945Z,36.47
2018-08-18T01:20:01.884Z,30.07
2018-08-18T01:22:31.831Z,27.50
2018-08-18T01:25:01.704Z,27.93
2018-08-18T01:38:05.998Z,30.63
2018-08-18T01:40:36.087Z,33.70
2018-08-18T01:43:05.706Z,33.20
2018-08-18T01:45:35.440Z,30.37
2018-08-18T01:51:02.350Z,34.13
2018-08-18T01:53:31.988Z,32.55
2018-08-18T01:56:01.823Z,24.53
2018-08-18T01:58:38.010Z,24.23
2018-08-18T02:04:01.169Z,23.90
2018-08-18T02:06:31.010Z,23.17
2018-08-18T02:09:01.200Z,23.37
2018-08-18T02:11:30.983Z,25.57
2018-08-18T02:14:02.978Z,27.10
2018-08-18T02:16:33.310Z,27.80
2018-08-18T02:19:06.322Z,29.67
2018-08-18T02:21:37.244Z,28.50
2018-08-18T02:24:07.562Z,32.40
2018-08-18T02:26:37.961Z,34.00
2018-08-18T02:29:07.824Z,28.83
2018-08-18T02:31:37.934Z,32.37
2018-08-18T02:40:34.962Z,25.10
2018-08-18T02:43:13.991Z,32.43
2018-08-18T02:45:43.544Z,28.00
2018-08-18T02:48:16.647Z,34.83
2018-08-18T02:50:49.465Z,33.30
2018-08-18T02:53:27.125Z,33.67
2018-08-18T02:55:57.407Z,33.47
2018-08-18T02:58:26.945Z,33.33
2018-08-18T03:00:56.379Z,31.67
2018-08-18T03:03:25.847Z,31.53
2018-08-18T03:05:59.179Z,37.90
2018-08-18T03:08:29.267Z,33.17
2018-08-18T03:10:58.744Z,35.60
2018-08-18T03:13:28.393Z,37.43
2018-08-18T03:15:59.407Z,36.77
2018-08-18T03:18:43.904Z,29.43
2018-08-18T03:21:13.672Z,33.00
2018-08-18T03:23:53.653Z,33.73
2018-08-18T03:26:45.813Z,34.80
2018-08-18T03:29:16.399Z,32.67
2018-08-18T03:31:46.667Z,33.20
2018-08-18T03:34:16.544Z,37.83
2018-08-18T03:36:48.366Z,37.63
2018-08-18T03:39:35.095Z,42.17
2018-08-18T03:42:05.544Z,41.73
2018-08-18T03:44:41.338Z,40.07
2018-08-18T03:47:10.787Z,29.40
2018-08-18T03:49:40.159Z,30.37
2018-08-18T03:52:09.653Z,31.63
2018-08-18T03:54:39.098Z,36.23
2018-08-18T03:57:08.539Z,37.03
2018-08-18T03:59:37.984Z,40.37
2018-08-18T04:02:07.377Z,36.90
2018-08-18T04:04:37.999Z,35.87
2018-08-18T04:07:08.941Z,38.23
2018-08-18T04:09:39.993Z,42.37
2018-08-18T04:12:11.294Z,38.03
2018-08-18T04:14:43.259Z,38.50
2018-08-18T04:17:24.416Z,32.87
2018-08-18T04:19:53.974Z,31.43
2018-08-18T04:22:24.394Z,39.07
2018-08-18T04:24:53.884Z,43.10
2018-08-18T04:27:37.665Z,42.17
2018-08-18T04:30:10.480Z,36.33
2018-08-18T04:32:50.474Z,39.03
2018-08-18T04:35:23.671Z,40.17
2018-08-18T04:37:54.363Z,40.20
2018-08-18T04:40:24.623Z,37.90
2018-08-18T04:42:57.022Z,37.90
2018-08-18T04:48:45.191Z,36.53
2018-08-18T04:54:19.444Z,38.63
2018-08-18T04:56:48.910Z,39.10
2018-08-18T04:59:38.223Z,38.27
2018-08-18T05:02:07.847Z,36.93
2018-08-18T05:04:37.231Z,29.18
2018-08-18T05:07:06.764Z,29.90
2018-08-18T05:09:38.644Z,29.07
2018-08-18T05:12:08.164Z,33.05
2018-08-18T05:14:37.664Z,35.60
2018-08-18T05:17:07.345Z,37.27
2018-08-18T05:19:43.125Z,40.55
2018-08-18T05:22:12.645Z,29.72
2018-08-18T05:24:42.054Z,27.35
2018-08-18T05:29:34.684Z,19.10
2018-08-18T05:32:04.552Z,17.98
2018-08-18T05:34:33.924Z,13.45
2018-08-18T05:37:03.445Z,10.90
2018-08-18T05:39:32.872Z,11.50
2018-08-18T05:42:02.992Z,9.45
2018-08-18T05:44:32.704Z,10.20
2018-08-18T05:47:02.144Z,9.58
2018-08-18T05:49:31.693Z,9.53
2018-08-18T05:52:01.204Z,9.05
2018-08-18T05:54:30.543Z,9.05
2018-08-18T05:56:59.991Z,7.42
2018-08-18T05:59:29.364Z,8.48
2018-08-18T06:02:07.104Z,8.15
2018-08-18T06:04:36.644Z,8.08
2018-08-18T06:07:12.065Z,7.95
2018-08-18T06:09:41.491Z,7.35
2018-08-18T06:12:16.144Z,7.10
2018-08-18T06:14:48.543Z,7.25
2018-08-18T06:17:22.885Z,7.30
2018-08-18T06:19:52.404Z,7.45
2018-08-18T06:22:21.924Z,7.67
2018-08-18T06:24:51.543Z,8.08
2018-08-18T06:27:22.884Z,7.65
2018-08-18T06:29:52.346Z,7.20
2018-08-18T06:32:21.803Z,7.87
2018-08-18T06:34:51.385Z,8.10
2018-08-18T06:37:20.804Z,7.60
2018-08-18T06:39:56.024Z,7.62
2018-08-18T06:42:34.944Z,7.10
2018-08-18T06:45:05.025Z,7.17
2018-08-18T06:47:34.644Z,7.67
2018-08-18T06:50:04.304Z,7.60
2018-08-18T06:52:33.865Z,7.62
2018-08-18T06:55:03.469Z,6.55
2018-08-18T06:57:41.066Z,6.90
2018-08-18T07:00:13.286Z,6.50
2018-08-18T07:02:42.957Z,6.47
2018-08-18T07:05:14.585Z,6.22
2018-08-18T07:07:44.847Z,6.17
2018-08-18T07:10:26.138Z,6.15
2018-08-18T07:12:57.257Z,6.00
2018-08-18T07:15:28.828Z,5.83
2018-08-18T07:17:58.474Z,6.20
2018-08-18T07:20:28.106Z,5.62
2018-08-18T07:22:57.736Z,5.87
2018-08-18T07:25:27.303Z,5.95
2018-08-18T07:28:01.874Z,6.05
2018-08-18T07:30:32.243Z,5.87
2018-08-18T07:33:02.359Z,6.08
2018-08-18T07:35:31.848Z,5.92
2018-08-18T07:38:01.252Z,6.00
2018-08-18T07:40:40.103Z,5.70
2018-08-18T07:43:10.129Z,5.50
2018-08-18T07:45:39.599Z,5.10
2018-08-18T07:48:09.636Z,5.50
2018-08-18T07:50:39.082Z,5.72
2018-08-18T07:53:09.595Z,5.55
2018-08-18T07:55:39.012Z,5.12
2018-08-18T07:58:14.145Z,5.35
2018-08-18T08:00:44.145Z,5.55
2018-08-18T08:03:15.141Z,5.28
2018-08-18T08:05:44.768Z,5.15
2018-08-18T08:08:14.352Z,4.90
2018-08-18T08:10:43.803Z,4.90
2018-08-18T08:13:14.814Z,4.85
2018-08-18T08:15:44.396Z,4.67
2018-08-18T08:18:15.769Z,4.87
2018-08-18T08:20:45.323Z,4.60
2018-08-18T08:23:14.976Z,4.53
2018-08-18T08:25:44.449Z,5.10
2018-08-18T08:28:14.165Z,4.58
2018-08-18T08:30:43.585Z,4.90
2018-08-18T08:33:23.200Z,4.50
2018-08-18T08:35:52.762Z,4.80
2018-08-18T08:38:22.302Z,5.15
2018-08-18T08:40:52.102Z,4.65
2018-08-18T08:43:35.683Z,4.45
2018-08-18T08:46:05.283Z,5.15
2018-08-18T08:48:34.662Z,5.12
2018-08-18T08:51:04.244Z,4.97
2018-08-18T08:53:33.861Z,5.05
2018-08-18T08:56:03.920Z,4.22
2018-08-18T08:58:35.204Z,4.75
2018-08-18T09:01:05.362Z,4.72
2018-08-18T09:03:34.801Z,4.55
2018-08-18T09:06:04.161Z,4.92
2018-08-18T09:08:33.700Z,4.72
2018-08-18T09:11:03.460Z,4.03
2018-08-18T09:13:33.003Z,4.47
2018-08-18T09:16:02.640Z,3.90
2018-08-18T09:18:32.385Z,4.40
2018-08-18T09:21:02.561Z,3.83
2018-08-18T09:23:36.126Z,3.87
2018-08-18T09:26:05.767Z,4.00
2018-08-18T09:28:35.401Z,3.65
2018-08-18T09:31:04.887Z,3.85
2018-08-18T09:33:34.559Z,4.10
2018-08-18T09:36:06.173Z,3.80
2018-08-18T09:38:35.827Z,3.65
2018-08-18T09:41:05.362Z,4.00
2018-08-18T09:43:35.202Z,3.90
2018-08-18T09:46:04.629Z,4.15
2018-08-18T09:48:34.320Z,3.92
2018-08-18T09:51:03.727Z,4.05
2018-08-18T09:53:33.260Z,4.10
2018-08-18T09:56:02.707Z,3.83
2018-08-18T09:58:32.240Z,3.83
2018-08-18T10:01:01.620Z,4.20
2018-08-18T10:03:31.227Z,3.72
2018-08-18T10:06:00.699Z,3.70
2018-08-18T10:08:30.200Z,3.87
2018-08-18T10:10:59.680Z,3.80
2018-08-18T10:13:29.358Z,3.62
2018-08-18T10:15:58.779Z,3.65
2018-08-18T10:18:33.438Z,3.65
2018-08-18T10:21:02.867Z,3.70
2018-08-18T10:23:32.278Z,3.50
2018-08-18T10:26:01.747Z,3.90
2018-08-18T10:28:31.182Z,3.40
2018-08-18T10:31:00.541Z,3.62
2018-08-18T10:33:30.039Z,4.08
2018-08-18T10:35:59.418Z,3.65
2018-08-18T10:38:28.859Z,3.83
2018-08-18T10:40:58.619Z,4.25
2018-08-18T10:43:28.101Z,3.92
2018-08-18T10:45:57.519Z,4.00
2018-08-18T10:48:27.359Z,3.90
2018-08-18T10:51:32.242Z,3.70
2018-08-18T10:54:03.283Z,3.92
2018-08-18T10:56:32.704Z,3.65
2018-08-18T10:59:15.867Z,3.75
2018-08-18T11:02:01.990Z,3.67
2018-08-18T11:04:33.779Z,3.20
2018-08-18T11:07:03.610Z,2.72
2018-08-18T11:09:33.787Z,2.98
2018-08-18T11:12:04.080Z,2.40
2018-08-18T11:14:33.520Z,2.87
2018-08-18T11:17:03.122Z,2.90
2018-08-18T11:19:32.780Z,3.00
2018-08-18T11:22:13.020Z,3.10
2018-08-18T11:24:42.439Z,3.02
2018-08-18T11:27:12.059Z,3.08
2018-08-18T11:29:41.419Z,3.10
2018-08-18T11:32:10.960Z,3.40
2018-08-18T11:34:40.380Z,2.87
2018-08-18T11:37:09.960Z,2.75
2018-08-18T11:39:39.359Z,2.75
2018-08-18T11:42:08.784Z,2.77
2018-08-18T11:44:38.140Z,2.60
2018-08-18T11:47:07.673Z,2.52
2018-08-18T11:49:37.131Z,2.37
2018-08-18T11:52:06.690Z,2.87
2018-08-18T11:54:36.184Z,3.00
2018-08-18T11:57:05.744Z,2.95
2018-08-18T11:59:35.126Z,3.00
2018-08-18T12:02:04.783Z,2.83
2018-08-18T12:04:34.338Z,2.90
2018-08-18T12:07:03.990Z,3.00
2018-08-18T12:09:33.619Z,2.20
2018-08-18T12:12:04.870Z,2.35
2018-08-18T12:14:34.505Z,2.00
2018-08-18T12:17:05.040Z,1.95
2018-08-18T12:19:34.724Z,2.33
2018-08-18T12:22:05.274Z,2.30
2018-08-18T12:24:34.659Z,2.30
2018-08-18T12:27:13.852Z,2.33
2018-08-18T12:29:43.424Z,2.27
2018-08-18T12:32:18.747Z,2.30
2018-08-18T12:34:48.087Z,2.15
2018-08-18T12:37:17.729Z,2.05
2018-08-18T12:39:47.266Z,2.30
2018-08-18T12:42:21.679Z,2.58
2018-08-18T12:44:51.171Z,2.60
2018-08-18T12:47:20.712Z,2.50
2018-08-18T12:49:50.178Z,2.05
2018-08-18T12:52:19.761Z,2.50
2018-08-18T12:54:49.260Z,2.50
2018-08-18T12:57:29.514Z,2.37
2018-08-18T12:59:58.891Z,2.70
2018-08-18T13:02:38.016Z,2.58
2018-08-18T13:05:07.608Z,2.47
2018-08-18T13:07:41.225Z,2.10
2018-08-18T13:10:18.789Z,2.22
2018-08-18T13:12:48.443Z,2.55
2018-08-18T13:15:18.292Z,2.10
2018-08-18T13:17:47.970Z,1.90
2018-08-18T13:20:22.461Z,2.37
2018-08-18T13:22:51.900Z,2.02
2018-08-18T13:25:21.661Z,2.22
2018-08-18T13:27:54.217Z,2.60
2018-08-18T13:30:24.389Z,2.58
2018-08-18T13:32:56.708Z,2.60
2018-08-18T13:35:26.166Z,2.02
2018-08-18T13:37:56.129Z,2.20
2018-08-18T13:40:28.141Z,2.10
2018-08-18T13:42:57.693Z,2.00
2018-08-18T13:45:43.304Z,2.20
2018-08-18T13:48:13.699Z,2.15
2018-08-18T13:50:43.206Z,1.80
2018-08-18T13:53:12.727Z,2.20
2018-08-18T13:55:42.746Z,2.30
2018-08-18T13:58:13.314Z,2.10
2018-08-18T14:00:42.953Z,1.80
2018-08-18T14:03:24.280Z,2.27
2018-08-18T14:05:55.262Z,2.33
2018-08-18T14:08:24.923Z,2.47
2018-08-18T14:10:54.498Z,2.22
2018-08-18T14:13:24.233Z,2.55
2018-08-18T14:15:58.615Z,2.45
2018-08-18T14:18:28.231Z,2.52
2018-08-18T14:21:06.126Z,2.37
2018-08-18T14:23:35.710Z,2.33
2018-08-18T14:26:05.166Z,2.52
2018-08-18T14:28:35.011Z,2.67
2018-08-18T14:31:04.426Z,2.50
2018-08-18T14:33:33.989Z,2.55
2018-08-18T14:36:08.727Z,2.62
2018-08-18T14:38:38.186Z,2.30
2018-08-18T14:41:08.349Z,2.80
2018-08-18T14:43:40.219Z,2.72
2018-08-18T14:46:11.598Z,2.67
2018-08-18T14:48:41.206Z,2.65
2018-08-18T14:51:10.886Z,2.87
2018-08-18T14:53:43.447Z,2.87
2018-08-18T14:56:12.845Z,2.75
2018-08-18T14:58:44.512Z,2.90
2018-08-18T15:01:14.981Z,2.80
2018-08-18T15:03:44.562Z,2.70
2018-08-18T15:06:14.321Z,2.80
2018-08-18T15:08:43.994Z,2.92
2018-08-18T15:11:13.357Z,3.00
2018-08-18T15:13:43.079Z,3.17
2018-08-18T15:16:12.425Z,3.27
2018-08-18T15:18:42.004Z,3.30
2018-08-18T15:21:11.563Z,3.50
2018-08-18T15:23:41.201Z,3.35
2018-08-18T15:26:10.786Z,3.10
2018-08-18T15:28:40.339Z,2.90
2018-08-18T15:31:09.819Z,3.30
2018-08-18T15:33:39.286Z,3.10
2018-08-18T15:36:18.315Z,3.30
2018-08-18T15:38:48.150Z,3.20
2018-08-18T15:41:17.709Z,3.65
2018-08-18T15:43:47.429Z,3.90
2018-08-18T15:46:17.032Z,3.12
2018-08-18T15:48:46.606Z,3.50
2018-08-18T15:51:15.957Z,3.47
2018-08-18T15:53:50.491Z,4.00
2018-08-18T15:56:20.730Z,3.42
2018-08-18T15:58:51.184Z,3.70
2018-08-18T16:01:24.024Z,3.45
2018-08-18T16:03:54.325Z,3.60
2018-08-18T16:06:23.827Z,3.75
2018-08-18T16:08:54.009Z,3.65
2018-08-18T16:11:23.822Z,3.72
2018-08-18T16:13:53.473Z,3.95
2018-08-18T16:16:23.069Z,3.65
2018-08-18T16:19:04.185Z,3.95
2018-08-18T16:21:34.865Z,4.03
2018-08-18T16:24:04.497Z,3.92
2018-08-18T16:26:34.007Z,3.98
2018-08-18T16:29:03.748Z,4.10
2018-08-18T16:31:33.205Z,4.05
2018-08-18T16:34:02.758Z,4.08
2018-08-18T16:36:51.112Z,4.37
2018-08-18T16:39:20.726Z,4.30
2018-08-18T16:41:50.134Z,4.33
2018-08-18T16:44:19.924Z,4.60
2018-08-18T16:46:49.349Z,4.33
2018-08-18T16:49:18.886Z,4.70
2018-08-18T16:51:52.373Z,4.55
2018-08-18T16:54:23.523Z,5.20
2018-08-18T16:56:53.070Z,6.03
2018-08-18T16:59:22.688Z,5.58
2018-08-18T17:01:52.113Z,5.78
2018-08-18T17:04:26.755Z,6.10
2018-08-18T17:06:56.673Z,6.25
2018-08-18T17:09:33.849Z,6.20
2018-08-18T17:12:14.399Z,6.42
2018-08-18T17:14:44.097Z,6.47
2018-08-18T17:17:13.834Z,6.40
2018-08-18T17:19:43.458Z,6.78
2018-08-18T17:22:14.376Z,7.08
2018-08-18T17:24:44.124Z,6.70
2018-08-18T17:27:14.107Z,7.17
2018-08-18T17:29:45.357Z,7.47
2018-08-18T17:32:15.382Z,7.95
2018-08-18T17:34:45.088Z,8.90
2018-08-18T17:37:15.094Z,8.33
2018-08-18T17:39:45.038Z,8.40
2018-08-18T17:42:16.505Z,8.30
2018-08-18T17:44:47.145Z,9.05
2018-08-18T17:47:18.157Z,8.68
2018-08-18T17:49:55.504Z,9.18
2018-08-18T17:52:28.372Z,9.13
2018-08-18T17:55:12.575Z,9.00
2018-08-18T17:57:45.686Z,8.35
2018-08-18T18:00:18.085Z,9.48
2018-08-18T18:02:53.758Z,9.43
2018-08-18T18:05:25.321Z,9.40
2018-08-18T18:08:01.828Z,9.98
2018-08-18T18:10:34.237Z,9.68
2018-08-18T18:13:11.717Z,9.68
2018-08-18T18:15:43.458Z,10.50
2018-08-18T18:18:17.037Z,10.93
2018-08-18T18:20:54.059Z,10.70
2018-08-18T18:23:25.961Z,11.57
2018-08-18T18:25:56.396Z,11.60
2018-08-18T18:28:26.321Z,12.45
2018-08-18T18:30:56.086Z,11.68
2018-08-18T18:33:26.998Z,12.95
2018-08-18T18:35:57.935Z,12.78
2018-08-18T18:38:29.303Z,14.05
2018-08-18T18:41:00.589Z,12.47
2018-08-18T18:43:31.369Z,12.40
2018-08-18T18:46:02.955Z,12.55
2018-08-18T18:48:34.018Z,11.28
2018-08-18T18:51:05.359Z,13.48
2018-08-18T18:53:54.472Z,14.13
2018-08-18T18:56:25.079Z,12.37
2018-08-18T18:59:02.202Z,11.93
2018-08-18T19:01:35.419Z,10.70
2018-08-18T19:04:06.442Z,10.68
2018-08-18T19:06:46.519Z,11.05
2018-08-18T19:09:18.817Z,10.55
2018-08-18T19:11:50.399Z,11.43
2018-08-18T19:14:25.688Z,11.40
2018-08-18T19:16:56.707Z,11.68
2018-08-18T19:19:27.773Z,11.90
2018-08-18T19:21:59.919Z,12.35
2018-08-18T19:24:31.082Z,12.85
2018-08-18T19:27:03.459Z,12.65
2018-08-18T19:29:35.754Z,13.18
2018-08-18T19:32:10.001Z,12.75
2018-08-18T19:34:41.141Z,13.10
2018-08-18T19:37:15.157Z,12.40
2018-08-18T19:39:45.697Z,13.13
2018-08-18T19:42:19.706Z,12.95
2018-08-18T19:44:51.300Z,13.45
2018-08-18T19:47:36.412Z,12.73
2018-08-18T19:50:09.310Z,13.58
2018-08-18T19:52:39.757Z,13.00
2018-08-18T19:55:12.420Z,11.65
2018-08-18T19:57:45.707Z,12.65
2018-08-18T20:00:22.108Z,13.15
2018-08-18T20:02:58.676Z,14.35
2018-08-18T20:05:28.348Z,13.85
2018-08-18T20:07:58.218Z,13.95
2018-08-18T20:10:27.954Z,13.45
2018-08-18T20:12:57.697Z,14.63
2018-08-18T20:15:27.569Z,13.32
2018-08-18T20:17:57.490Z,13.48
2018-08-18T20:20:27.368Z,14.18
2018-08-18T20:22:57.238Z,15.60
2018-08-18T20:25:27.330Z,15.30
2018-08-18T20:27:57.268Z,14.93
2018-08-18T20:30:27.019Z,15.00
2018-08-18T20:32:57.058Z,14.18
2018-08-18T20:35:28.359Z,15.55
2018-08-18T20:37:58.252Z,14.78
2018-08-18T20:40:29.195Z,15.70
2018-08-18T20:42:59.132Z,15.50
2018-08-18T20:45:35.311Z,15.50
2018-08-18T20:48:05.591Z,14.33
2018-08-18T20:50:35.584Z,16.73
2018-08-18T20:53:14.474Z,16.93
2018-08-18T20:55:46.337Z,17.75
2018-08-18T20:58:16.352Z,16.32
2018-08-18T21:00:46.171Z,17.00
2018-08-18T21:03:16.216Z,18.50
2018-08-18T21:05:46.038Z,17.42
2018-08-18T21:08:20.995Z,18.73
2018-08-18T21:10:50.978Z,18.90
2018-08-18T21:13:20.767Z,17.77
2018-08-18T21:15:50.578Z,20.17
2018-08-18T21:18:21.158Z,19.12
2018-08-18T21:20:50.990Z,18.05
2018-08-18T21:23:24.343Z,19.77
2018-08-18T21:25:54.952Z,18.92
2018-08-18T21:28:27.579Z,21.00
2018-08-18T21:30:57.352Z,19.92
2018-08-18T21:33:27.311Z,19.12
2018-08-18T21:35:56.970Z,17.67
2018-08-18T21:38:27.081Z,18.75
2018-08-18T21:40:57.047Z,18.77
2018-08-18T21:43:34.180Z,20.55
2018-08-18T21:46:04.009Z,19.50
2018-08-18T21:48:51.967Z,17.37
2018-08-18T21:51:27.453Z,20.47
2018-08-18T21:53:57.206Z,20.55
2018-08-18T21:56:27.069Z,21.40
2018-08-18T21:58:57.071Z,21.65
2018-08-18T22:01:26.855Z,19.52
2018-08-18T22:03:56.814Z,19.23
2018-08-18T22:06:26.610Z,19.27
2018-08-18T22:09:10.587Z,21.90
2018-08-18T22:11:40.365Z,21.42
2018-08-18T22:14:12.675Z,22.02
2018-08-18T22:16:58.012Z,19.45
2018-08-18T22:19:29.295Z,22.00
2018-08-18T22:21:59.141Z,20.13
2018-08-18T22:24:29.001Z,21.57
2018-08-18T22:26:58.784Z,20.72
2018-08-18T22:29:28.775Z,20.52
2018-08-18T22:31:58.531Z,17.77
2018-08-18T22:34:28.251Z,22.07
2018-08-18T22:37:03.555Z,21.47
2018-08-18T22:39:33.237Z,21.97
2018-08-18T22:42:03.175Z,22.90
2018-08-18T22:44:32.946Z,23.60
2018-08-18T22:47:04.928Z,23.93
2018-08-18T22:49:34.686Z,25.10
2018-08-18T22:52:04.604Z,22.47
2018-08-18T22:54:34.478Z,22.53
2018-08-18T22:57:05.396Z,21.97
2018-08-18T22:59:35.114Z,22.00
2018-08-18T23:02:04.846Z,23.13
2018-08-18T23:04:36.906Z,22.40
2018-08-18T23:07:07.819Z,23.83
2018-08-18T23:09:37.689Z,20.55
2018-08-18T23:12:08.506Z,18.02
2018-08-18T23:14:39.456Z,21.17
2018-08-18T23:17:10.690Z,22.17
2018-08-18T23:19:40.612Z,20.70
2018-08-18T23:22:19.769Z,20.80
2018-08-18T23:24:49.686Z,20.90
2018-08-18T23:27:19.233Z,23.03
2018-08-18T23:29:48.935Z,23.33
2018-08-18T23:32:23.542Z,23.57
2018-08-18T23:34:56.732Z,19.87
2018-08-18T23:37:26.526Z,21.37
2018-08-18T23:39:57.525Z,22.33
2018-08-18T23:42:27.925Z,20.85
2018-08-18T23:44:57.701Z,22.50
2018-08-18T23:47:27.322Z,21.77
2018-08-18T23:49:57.044Z,21.90
2018-08-18T23:52:26.967Z,22.17
2018-08-18T23:54:56.731Z,19.43
2018-08-18T23:57:26.356Z,19.73
2018-08-18T23:59:56.308Z,21.07
